Flight Track Log - Related Links

Times and Time Zones

All times are in EDT time to prevent confusion due to time zone crossing. See the ASQ5025 flight status page for this flight to view local times or setup timezone preferences in your user account.

Time Position Orientation Groundspeed Altitude Reporting Facility
EDT Latitude Longitude Course Direction KTS MPH feet Rate Location/Type
11:12AM 44.2756 -73.1969 196° South 292 336 9,100  Level Boston Center
11:13AM 44.1939 -73.2306 196° South 298 343 10,800 1,700 Climbing Boston Center
11:14AM 44.1000 -73.2697 197° South 335 386 12,500 1,750 Climbing Boston Center
11:15AM 44.0017 -73.3089 196° South 364 419 14,300 1,850 Climbing Boston Center
11:16AM 44.0201 -73.3187 196° South  Level FlightAware Approximate
11:16AM 43.9056 -73.3478 196° South 386 444 16,200  Level Boston Center
11:17AM 43.9458 -73.3484 196° South  Level FlightAware Approximate
11:17AM 43.8031 -73.3894 196° South 392 451 18,500  Level Boston Center
11:18AM 43.6967 -73.4308 196° South 397 457 20,500 1,750 Climbing Boston Center
11:19AM 43.5794 -73.4775 196° South 397 457 22,000 750 Climbing Boston Center
11:20AM 43.4664 -73.5242 197° South 409 471 22,000  Level Boston Center
11:21AM 43.3556 -73.5681 196° South 420 483 22,000  Level Boston Center
11:22AM 43.2447 -73.6086 195° South 420 483 22,000  Level Boston Center
11:23AM 43.1319 -73.6350 190° South 420 483 22,000  Level Boston Center
11:24AM 42.9986 -73.6325 179° South 425 489 22,000  Level Boston Center
11:25AM 42.8778 -73.6300 179° South 430 495 22,000  Level Boston Center
11:26AM 42.7464 -73.6303 180° South 430 495 22,000  Level Boston Center
11:27AM 42.6256 -73.6281 179° South 430 495 22,000  Level Boston Center
11:28AM 42.5047 -73.6258 179° South 436 502 22,000 -400 Level Boston Center
11:29AM 42.3817 -73.6206 178° South 441 507 21,200 -1,100 Descending Boston Center
11:30AM 42.2819 -73.6075 174° South 423 487 19,800 -1,350 Descending Boston Center
11:31AM 42.1525 -73.6331 188° South 417 480 18,500 -900 Descending Boston Center
11:32AM 42.0478 -73.6731 196° South 417 480 18,000 -500 Descending Boston Center
11:33AM 41.9411 -73.7156 197° South 404 465 17,500 -750 Descending Boston Center
11:34AM 41.8342 -73.7581 196° South 398 458 16,500 -1,150 Descending Boston Center
11:35AM 41.7294 -73.7975 196° South 398 458 15,200 -1,200 Descending Boston Center
11:36AM 41.6247 -73.8342 195° South 398 458 14,100 -1,241 Descending Boston Center
11:37AM 41.5333 -73.8500 187° South 381 438 12,800 -1,862 Descending New York TRACON
11:38AM 41.4333 -73.8667 187° South 339 390 10,500 -1,750 Descending New York TRACON
11:39AM 41.3500 -73.8167 156° South 294 338 9,300 -750 Descending New York TRACON
11:40AM 41.2833 -73.7500 143° Southeast 293 337 9,000 -1,000 Descending New York TRACON
11:41AM 41.2333 -73.7000 143° Southeast 288 331 7,400 -1,895 Descending New York TRACON
11:42AM 41.1500 -73.6667 163° South 285 328 5,400 -1,650 Descending New York TRACON
11:43AM 41.0833 -73.6667 180° South 256 295 4,100 -700 Descending New York TRACON
11:44AM 41.0333 -73.6667 180° South 190 219 4,000 -50 Descending New York TRACON
11:45AM 40.9833 -73.7000 207° Southwest 183 211 4,000 -100 Level New York TRACON
11:46AM 40.9500 -73.7333 217° Southwest 166 191 3,800 -550 Descending New York TRACON
11:47AM 40.9000 -73.7667 207° Southwest 156 180 2,900 -850 Descending New York TRACON
11:48AM 40.8667 -73.8000 217° Southwest 154 177 2,100 -800 Descending New York TRACON
11:49AM 40.8333 -73.8333 217° Southwest 150 173 1,300 -750 Descending New York TRACON
11:50AM 40.8000 -73.8500 201° Southwest 127 146 600 -700 Descending New York TRACON
11:52AM 40.7667 -73.8667 180° South  Level FlightAware Approximate
11:59AM 40.7772 -73.8726 180° South  Level Estimated
12:00PM 40.7772 -73.8726 180° South  Level Estimated

Login

Don't have an account? Register now (free) for customized features, flight alerts, and more!